createdAt,value
2017-11-15T00:00:11.125Z,20.10
2017-11-15T00:02:39.718Z,20.20
2017-11-15T00:05:07.552Z,20.10
2017-11-15T00:07:35.314Z,20.30
2017-11-15T00:10:03.149Z,20.20
2017-11-15T00:12:30.943Z,20.40
2017-11-15T00:14:58.807Z,20.30
2017-11-15T00:17:27.398Z,20.30
2017-11-15T00:19:55.217Z,19.80
2017-11-15T00:22:34.912Z,19.50
2017-11-15T00:25:02.761Z,19.50
2017-11-15T00:27:30.593Z,19.70
2017-11-15T00:29:58.390Z,19.70
2017-11-15T00:32:26.294Z,19.50
2017-11-15T00:34:54.164Z,19.60
2017-11-15T00:37:21.948Z,19.40
2017-11-15T00:39:49.781Z,19.30
2017-11-15T00:42:17.635Z,18.70
2017-11-15T00:44:45.604Z,17.90
2017-11-15T00:47:13.537Z,17.90
2017-11-15T00:49:41.454Z,18.10
2017-11-15T00:52:09.361Z,18.00
2017-11-15T00:54:37.194Z,18.00
2017-11-15T00:57:05.073Z,18.00
2017-11-15T00:59:32.938Z,18.10
2017-11-15T01:02:00.790Z,18.50
2017-11-15T01:04:28.684Z,18.60
2017-11-15T01:06:56.489Z,18.40
2017-11-15T01:09:25.089Z,18.10
2017-11-15T01:11:52.864Z,18.00
2017-11-15T01:14:20.841Z,18.20
2017-11-15T01:16:48.746Z,18.30
2017-11-15T01:19:16.604Z,18.10
2017-11-15T01:21:44.693Z,17.40
2017-11-15T01:24:12.568Z,17.30
2017-11-15T01:26:40.368Z,18.10
2017-11-15T01:29:08.281Z,18.20
2017-11-15T01:31:36.144Z,18.80
2017-11-15T01:34:03.987Z,19.20
2017-11-15T01:36:31.818Z,19.20
2017-11-15T01:38:59.732Z,18.90
2017-11-15T01:41:27.612Z,18.50
2017-11-15T01:43:55.473Z,18.30
2017-11-15T01:46:23.388Z,18.20
2017-11-15T01:48:51.257Z,18.20
2017-11-15T01:51:19.136Z,18.50
2017-11-15T01:53:47.008Z,18.70
2017-11-15T01:56:14.915Z,19.00
2017-11-15T01:58:42.972Z,18.60
2017-11-15T02:01:14.827Z,18.20
2017-11-15T02:03:43.469Z,18.70
2017-11-15T02:06:11.296Z,18.70
2017-11-15T02:08:39.171Z,18.50
2017-11-15T02:11:07.015Z,18.70
2017-11-15T02:13:35.659Z,18.80
2017-11-15T02:16:03.586Z,18.70
2017-11-15T02:18:31.468Z,17.90
2017-11-15T02:20:59.304Z,17.90
2017-11-15T02:23:27.206Z,17.90
2017-11-15T02:25:55.181Z,17.60
2017-11-15T02:28:23.100Z,17.10
2017-11-15T02:30:51.009Z,17.40
2017-11-15T02:33:19.707Z,17.40
2017-11-15T02:35:47.521Z,17.30
2017-11-15T02:38:15.464Z,17.20
2017-11-15T02:40:43.349Z,16.60
2017-11-15T02:43:11.185Z,17.00
2017-11-15T02:45:39.089Z,17.50
2017-11-15T02:48:06.909Z,17.50
2017-11-15T02:50:35.523Z,17.90
2017-11-15T02:53:03.498Z,17.90
2017-11-15T02:55:31.266Z,18.00
2017-11-15T02:57:59.102Z,18.20
2017-11-15T03:00:26.948Z,18.30
2017-11-15T03:02:54.831Z,17.90
2017-11-15T03:05:22.722Z,17.90
2017-11-15T03:07:50.544Z,18.10
2017-11-15T03:10:18.422Z,17.70
2017-11-15T03:12:46.358Z,17.00
2017-11-15T03:15:14.247Z,16.80
2017-11-15T03:17:42.154Z,16.60
2017-11-15T03:20:10.142Z,17.30
2017-11-15T03:22:38.017Z,17.60
2017-11-15T03:25:05.851Z,17.90
2017-11-15T03:27:33.662Z,18.10
2017-11-15T03:30:01.501Z,17.90
2017-11-15T03:32:30.014Z,18.50
2017-11-15T03:34:57.860Z,18.50
2017-11-15T03:37:25.635Z,18.60
2017-11-15T03:39:53.469Z,18.60
2017-11-15T03:42:21.328Z,18.50
2017-11-15T03:44:49.144Z,18.60
2017-11-15T03:47:16.917Z,18.80
2017-11-15T03:49:44.765Z,18.70
2017-11-15T03:52:12.594Z,18.40
2017-11-15T03:54:40.425Z,18.10
2017-11-15T03:57:08.328Z,17.80
2017-11-15T03:59:37.015Z,17.70
2017-11-15T04:02:04.887Z,17.60
2017-11-15T04:04:33.370Z,18.00
2017-11-15T04:07:01.180Z,17.80
2017-11-15T04:09:29.026Z,17.80
2017-11-15T04:11:56.866Z,17.80
2017-11-15T04:14:24.687Z,17.60
2017-11-15T04:16:52.503Z,17.60
2017-11-15T04:19:20.381Z,17.20
2017-11-15T04:21:48.242Z,16.90
2017-11-15T04:24:16.107Z,16.80
2017-11-15T04:26:43.979Z,16.30
2017-11-15T04:29:11.877Z,17.00
2017-11-15T04:31:39.724Z,17.00
2017-11-15T04:34:07.660Z,16.30
2017-11-15T04:36:35.510Z,16.10
2017-11-15T04:39:03.561Z,16.50
2017-11-15T04:41:31.806Z,16.00
2017-11-15T04:44:00.735Z,15.50
2017-11-15T04:46:28.691Z,15.10
2017-11-15T04:48:56.648Z,15.80
2017-11-15T04:51:24.506Z,16.10
2017-11-15T04:53:52.340Z,16.20
2017-11-15T04:56:22.506Z,15.60
2017-11-15T04:58:50.399Z,15.20
2017-11-15T05:01:18.369Z,15.60
2017-11-15T05:03:46.285Z,16.10
2017-11-15T05:06:14.196Z,16.70
2017-11-15T05:08:42.056Z,17.20
2017-11-15T05:11:09.985Z,17.40
2017-11-15T05:13:38.752Z,17.00
2017-11-15T05:16:06.593Z,16.90
2017-11-15T05:18:34.461Z,17.10
2017-11-15T05:21:02.383Z,17.30
2017-11-15T05:23:30.323Z,16.90
2017-11-15T05:25:59.636Z,16.20
2017-11-15T05:28:27.580Z,16.10
2017-11-15T05:30:55.473Z,16.40
2017-11-15T05:33:24.723Z,16.70
2017-11-15T05:35:54.224Z,18.00
2017-11-15T05:38:22.099Z,18.80
2017-11-15T05:40:50.108Z,18.20
2017-11-15T05:43:18.019Z,18.60
2017-11-15T05:45:45.988Z,18.50
2017-11-15T05:48:13.920Z,17.70
2017-11-15T05:50:41.950Z,17.80
2017-11-15T05:53:56.349Z,17.30
2017-11-15T05:59:45.234Z,16.90
2017-11-15T06:02:14.058Z,16.80
2017-11-15T06:04:42.993Z,16.80
2017-11-15T06:07:12.882Z,16.70
2017-11-15T06:09:41.644Z,17.40
2017-11-15T06:12:09.827Z,17.30
2017-11-15T06:14:38.291Z,17.70
2017-11-15T06:17:36.731Z,17.80
2017-11-15T06:20:04.789Z,18.10
2017-11-15T06:22:33.041Z,18.20
2017-11-15T06:25:01.018Z,17.70
2017-11-15T06:27:30.472Z,18.20
2017-11-15T06:29:58.514Z,18.30
2017-11-15T06:32:26.708Z,18.50
2017-11-15T06:34:58.105Z,18.40
2017-11-15T06:37:26.702Z,18.70
2017-11-15T06:39:54.571Z,19.30
2017-11-15T06:42:37.797Z,19.90
2017-11-15T06:55:00.042Z,19.30
2017-11-15T06:58:14.040Z,19.30
2017-11-15T07:01:03.198Z,19.40
2017-11-15T07:03:38.106Z,19.20
2017-11-15T07:06:14.199Z,19.10
2017-11-15T07:08:44.568Z,19.60
2017-11-15T07:11:12.628Z,19.60
2017-11-15T07:13:43.239Z,20.20
2017-11-15T07:16:11.351Z,21.00
2017-11-15T07:18:45.762Z,21.20
2017-11-15T07:21:15.897Z,20.70
2017-11-15T07:23:43.955Z,21.20
2017-11-15T07:26:24.225Z,21.80
2017-11-15T07:28:52.281Z,21.80
2017-11-15T07:31:23.271Z,21.70
2017-11-15T07:33:56.629Z,21.30
2017-11-15T07:36:25.073Z,20.50
2017-11-15T07:38:55.803Z,20.40
2017-11-15T07:41:24.548Z,20.30
2017-11-15T07:44:02.973Z,20.30
2017-11-15T07:46:31.298Z,20.70
2017-11-15T07:52:30.452Z,18.50
2017-11-15T07:55:06.065Z,18.60
2017-11-15T07:57:34.419Z,18.20
2017-11-15T08:00:02.368Z,18.40
2017-11-15T08:02:30.189Z,19.10
2017-11-15T08:04:58.003Z,19.00
2017-11-15T08:07:25.855Z,19.40
2017-11-15T08:09:53.744Z,19.50
2017-11-15T08:12:21.754Z,19.60
2017-11-15T08:14:49.703Z,19.80
2017-11-15T08:17:17.542Z,19.80
2017-11-15T08:19:45.489Z,20.40
2017-11-15T08:22:13.313Z,20.90
2017-11-15T08:24:41.112Z,21.50
2017-11-15T08:27:09.104Z,21.00
2017-11-15T08:29:37.054Z,20.60
2017-11-15T08:32:04.838Z,19.70
2017-11-15T08:34:32.655Z,19.70
2017-11-15T08:37:00.477Z,20.40
2017-11-15T08:39:28.308Z,20.60
2017-11-15T08:41:56.107Z,19.70
2017-11-15T08:44:23.997Z,19.80
2017-11-15T08:46:52.625Z,20.30
2017-11-15T08:49:20.494Z,20.20
2017-11-15T08:51:48.322Z,19.10
2017-11-15T08:54:16.897Z,19.50
2017-11-15T08:56:44.673Z,19.40
2017-11-15T08:59:13.291Z,19.80
2017-11-15T09:01:41.154Z,19.70
2017-11-15T09:04:08.985Z,19.60
2017-11-15T09:06:36.916Z,20.90
2017-11-15T09:09:04.714Z,21.40
2017-11-15T09:11:32.563Z,21.60
2017-11-15T09:14:00.479Z,21.70
2017-11-15T09:16:29.081Z,20.20
2017-11-15T09:18:56.942Z,20.10
2017-11-15T09:21:25.631Z,20.50
2017-11-15T09:23:54.180Z,21.20
2017-11-15T09:26:22.098Z,21.20
2017-11-15T09:31:22.815Z,19.50
2017-11-15T09:33:50.695Z,19.70
2017-11-15T09:36:18.498Z,19.80
2017-11-15T09:38:46.368Z,19.30
2017-11-15T09:41:14.305Z,20.00
2017-11-15T09:43:42.095Z,20.20
2017-11-15T09:46:09.989Z,20.00
2017-11-15T09:48:37.947Z,19.50
2017-11-15T09:51:07.600Z,19.00
2017-11-15T09:53:35.561Z,19.20
2017-11-15T09:56:03.476Z,19.40
2017-11-15T09:58:32.057Z,19.90
2017-11-15T10:01:00.751Z,19.20
2017-11-15T10:03:29.382Z,20.20
2017-11-15T10:05:57.159Z,20.10
2017-11-15T10:08:24.952Z,20.60
2017-11-15T10:10:52.847Z,20.60
2017-11-15T10:13:20.703Z,20.30
2017-11-15T10:15:49.309Z,21.00
2017-11-15T10:18:17.939Z,20.60
2017-11-15T10:20:45.809Z,20.50
2017-11-15T10:23:13.576Z,20.30
2017-11-15T10:25:41.348Z,21.00
2017-11-15T10:28:09.106Z,21.60
2017-11-15T10:30:36.921Z,22.10
2017-11-15T10:33:05.518Z,21.40
2017-11-15T10:35:33.310Z,21.40
2017-11-15T10:38:01.166Z,22.30
2017-11-15T10:40:29.092Z,22.20
2017-11-15T10:42:56.911Z,21.60
2017-11-15T10:45:24.721Z,22.10
2017-11-15T10:47:52.609Z,22.00
2017-11-15T10:50:21.191Z,22.00
2017-11-15T10:52:49.802Z,21.60
2017-11-15T10:55:18.522Z,21.30
2017-11-15T10:57:46.419Z,21.20
2017-11-15T11:00:14.354Z,21.60
2017-11-15T11:02:42.268Z,22.00
2017-11-15T11:05:10.106Z,22.10
2017-11-15T11:07:37.911Z,21.60
2017-11-15T11:10:05.778Z,21.90
2017-11-15T11:12:33.661Z,22.00
2017-11-15T11:15:02.336Z,22.80
2017-11-15T11:17:30.303Z,22.70
2017-11-15T11:19:58.158Z,22.60
2017-11-15T11:22:25.970Z,22.60
2017-11-15T11:24:53.834Z,22.40
2017-11-15T11:27:22.413Z,22.90
2017-11-15T11:29:51.048Z,22.60
2017-11-15T11:32:18.872Z,22.50
2017-11-15T11:34:47.481Z,21.90
2017-11-15T11:37:15.253Z,21.80
2017-11-15T11:39:43.065Z,21.80
2017-11-15T11:42:10.896Z,21.80
2017-11-15T11:44:38.664Z,21.60
2017-11-15T11:47:06.489Z,21.80
2017-11-15T11:49:35.190Z,20.50
2017-11-15T11:52:03.015Z,20.40
2017-11-15T11:54:30.828Z,20.90
2017-11-15T11:56:58.726Z,20.80
2017-11-15T11:59:26.550Z,21.20
2017-11-15T12:01:55.155Z,21.90
2017-11-15T12:04:23.075Z,21.90
2017-11-15T12:06:50.917Z,21.50
2017-11-15T12:09:18.804Z,20.90
2017-11-15T12:11:46.698Z,21.50
2017-11-15T12:14:14.551Z,21.20
2017-11-15T12:16:42.381Z,21.30
2017-11-15T12:19:10.244Z,21.60
2017-11-15T12:21:38.104Z,21.40
2017-11-15T12:24:06.813Z,20.60
2017-11-15T12:26:34.751Z,20.50
2017-11-15T12:29:03.392Z,20.50
2017-11-15T12:31:31.250Z,20.40
2017-11-15T12:33:59.062Z,20.00
2017-11-15T12:36:26.849Z,20.50
2017-11-15T12:38:55.424Z,21.00
2017-11-15T12:41:24.052Z,21.10
2017-11-15T12:43:51.879Z,21.00
2017-11-15T12:46:20.586Z,20.20
2017-11-15T12:48:48.439Z,20.20
2017-11-15T12:51:17.057Z,20.90
2017-11-15T12:53:44.922Z,20.90
2017-11-15T12:56:12.781Z,21.20
2017-11-15T12:58:40.625Z,21.00
2017-11-15T13:01:09.217Z,20.40
2017-11-15T13:03:37.783Z,21.20
2017-11-15T13:06:05.570Z,21.20
2017-11-15T13:08:34.241Z,21.90
2017-11-15T13:11:02.065Z,21.90
2017-11-15T13:13:30.060Z,21.00
2017-11-15T13:16:07.000Z,21.00
2017-11-15T13:18:38.182Z,21.30
2017-11-15T13:21:06.235Z,21.70
2017-11-15T13:23:34.261Z,22.00
2017-11-15T13:26:02.894Z,21.50
2017-11-15T13:28:30.700Z,21.40
2017-11-15T13:30:58.537Z,21.10
2017-11-15T13:33:26.541Z,21.20
2017-11-15T13:39:11.198Z,21.60
2017-11-15T13:41:39.016Z,21.10
2017-11-15T13:44:06.845Z,21.50
2017-11-15T13:46:34.850Z,21.60
2017-11-15T13:49:02.850Z,21.90
2017-11-15T13:51:30.841Z,21.20
2017-11-15T13:53:58.764Z,21.80
2017-11-15T13:56:26.677Z,21.30
2017-11-15T13:58:54.555Z,20.50
2017-11-15T14:01:22.525Z,20.20
2017-11-15T14:03:50.320Z,20.80
2017-11-15T14:06:18.157Z,21.20
2017-11-15T14:08:46.085Z,20.90
2017-11-15T14:11:13.957Z,21.40
2017-11-15T14:13:42.614Z,21.00
2017-11-15T14:16:10.430Z,21.00
2017-11-15T14:18:39.044Z,21.70
2017-11-15T14:21:07.061Z,21.60
2017-11-15T14:23:36.142Z,21.40
2017-11-15T14:26:06.672Z,21.10
2017-11-15T14:28:34.480Z,21.00
2017-11-15T14:31:03.107Z,21.00
2017-11-15T14:33:30.931Z,20.90
2017-11-15T14:35:59.533Z,21.70
2017-11-15T14:38:27.425Z,21.60
2017-11-15T14:40:55.350Z,21.70
2017-11-15T14:43:23.313Z,21.80
2017-11-15T14:45:51.216Z,22.20
2017-11-15T14:48:19.126Z,21.70
2017-11-15T14:50:47.000Z,21.30
2017-11-15T14:53:15.003Z,21.10
2017-11-15T14:55:43.067Z,20.60
2017-11-15T14:58:10.876Z,20.50
2017-11-15T15:00:38.728Z,21.20
2017-11-15T15:03:07.305Z,21.90
2017-11-15T15:05:35.171Z,21.90
2017-11-15T15:08:03.780Z,21.80
2017-11-15T15:10:31.626Z,21.80
2017-11-15T15:12:59.487Z,21.20
2017-11-15T15:15:29.152Z,20.80
2017-11-15T15:17:57.010Z,20.80
2017-11-15T15:20:24.875Z,21.20
2017-11-15T15:22:52.703Z,21.00
2017-11-15T15:25:20.609Z,21.30
2017-11-15T15:27:48.461Z,21.50
2017-11-15T15:30:16.334Z,21.80
2017-11-15T15:32:45.081Z,22.00
2017-11-15T15:35:12.884Z,22.00
2017-11-15T15:37:41.473Z,22.10
2017-11-15T15:40:09.253Z,22.00
2017-11-15T15:42:37.101Z,22.00
2017-11-15T15:45:04.927Z,22.40
2017-11-15T15:47:32.767Z,22.60
2017-11-15T15:50:00.517Z,22.60
2017-11-15T15:52:28.336Z,22.40
2017-11-15T15:54:56.175Z,22.50
2017-11-15T15:57:24.033Z,22.90
2017-11-15T15:59:51.906Z,22.80
2017-11-15T16:02:19.803Z,22.40
2017-11-15T16:04:47.650Z,22.50
2017-11-15T16:07:15.461Z,22.60
2017-11-15T16:09:43.288Z,22.60
2017-11-15T16:12:11.091Z,22.90
2017-11-15T16:14:38.865Z,23.10
2017-11-15T16:17:06.722Z,22.80
2017-11-15T16:19:34.492Z,22.90
2017-11-15T16:22:02.403Z,22.80
2017-11-15T16:24:30.253Z,22.10
2017-11-15T16:26:58.151Z,22.40
2017-11-15T16:29:26.036Z,22.80
2017-11-15T16:31:53.990Z,22.80
2017-11-15T16:34:21.848Z,23.00
2017-11-15T16:36:49.699Z,23.00
2017-11-15T16:39:17.565Z,22.40
2017-11-15T16:41:45.439Z,22.60
2017-11-15T16:44:13.265Z,22.70
2017-11-15T16:46:41.080Z,22.90
2017-11-15T16:49:08.948Z,23.20
2017-11-15T16:51:37.574Z,23.40
2017-11-15T16:54:06.127Z,23.50
2017-11-15T16:56:33.915Z,23.40
2017-11-15T16:59:01.918Z,22.90
2017-11-15T17:01:29.724Z,22.30
2017-11-15T17:03:59.123Z,22.50
2017-11-15T17:06:27.202Z,22.70
2017-11-15T17:08:55.012Z,22.90
2017-11-15T17:11:22.885Z,22.50
2017-11-15T17:13:50.849Z,22.00
2017-11-15T17:16:18.672Z,22.30
2017-11-15T17:18:46.495Z,22.40
2017-11-15T17:21:14.292Z,21.90
2017-11-15T17:23:42.150Z,21.70
2017-11-15T17:26:09.996Z,21.90
2017-11-15T17:28:37.928Z,21.80
2017-11-15T17:31:06.591Z,20.90
2017-11-15T17:33:34.674Z,20.90
2017-11-15T17:36:03.345Z,20.20
2017-11-15T17:38:31.231Z,20.20
2017-11-15T17:40:59.296Z,19.80
2017-11-15T17:43:27.250Z,20.30
2017-11-15T17:45:55.263Z,20.40
2017-11-15T17:48:23.144Z,20.60
2017-11-15T17:50:50.983Z,20.20
2017-11-15T17:53:18.966Z,21.00
2017-11-15T17:55:47.528Z,21.20
2017-11-15T17:58:16.457Z,21.20
2017-11-15T18:00:44.362Z,21.50
2017-11-15T18:03:12.293Z,21.50
2017-11-15T18:05:40.285Z,21.10
2017-11-15T18:08:08.208Z,21.40
2017-11-15T18:10:36.052Z,21.40
2017-11-15T18:13:04.007Z,21.30
2017-11-15T18:15:32.141Z,20.80
2017-11-15T18:18:00.281Z,20.00
2017-11-15T18:20:29.075Z,19.90
2017-11-15T18:26:27.802Z,19.10
2017-11-15T18:28:55.962Z,19.10
2017-11-15T18:31:25.929Z,19.40
2017-11-15T18:42:02.198Z,19.90
2017-11-15T18:47:31.248Z,19.50
2017-11-15T18:49:59.927Z,20.80
2017-11-15T18:52:39.317Z,20.70
2017-11-15T18:55:11.203Z,20.60
2017-11-15T18:57:39.120Z,20.60
2017-11-15T19:00:11.634Z,20.80
2017-11-15T19:02:44.886Z,21.20
2017-11-15T19:05:13.795Z,21.20
2017-11-15T19:08:02.924Z,21.40
2017-11-15T19:10:32.146Z,22.30
2017-11-15T19:13:02.691Z,22.90
2017-11-15T19:34:16.179Z,23.40
2017-11-15T19:36:44.147Z,22.90
2017-11-15T19:39:12.216Z,23.20
2017-11-15T19:41:40.971Z,21.50
2017-11-15T19:44:08.903Z,21.50
2017-11-15T19:46:36.928Z,20.90
2017-11-15T19:49:05.682Z,20.60
2017-11-15T19:51:34.819Z,20.80
2017-11-15T19:54:02.752Z,21.30
2017-11-15T19:56:30.962Z,19.70
2017-11-15T19:58:58.958Z,21.10
2017-11-15T20:01:26.976Z,21.60
2017-11-15T20:03:55.042Z,21.70
2017-11-15T20:06:22.906Z,22.20
2017-11-15T20:08:50.914Z,22.60
2017-11-15T20:11:44.006Z,22.40
2017-11-15T20:14:12.112Z,22.20
2017-11-15T20:16:40.110Z,22.50
2017-11-15T20:19:14.222Z,21.80
2017-11-15T20:21:43.190Z,22.30
2017-11-15T20:24:12.530Z,22.50
2017-11-15T20:26:40.647Z,22.40
2017-11-15T20:29:10.121Z,21.30
2017-11-15T20:31:38.582Z,20.70
2017-11-15T20:34:06.719Z,20.10
2017-11-15T20:37:10.432Z,19.60
2017-11-15T20:39:38.539Z,19.20
2017-11-15T20:42:07.589Z,19.20
2017-11-15T20:44:35.700Z,20.40
2017-11-15T20:47:03.698Z,20.30
2017-11-15T20:49:31.752Z,20.40
2017-11-15T20:51:59.810Z,20.40
2017-11-15T20:57:07.788Z,19.90
2017-11-15T20:59:36.429Z,20.00
2017-11-15T21:02:04.439Z,19.70
2017-11-15T21:04:33.872Z,19.50
2017-11-15T21:07:11.227Z,20.00
2017-11-15T21:09:42.245Z,20.40
2017-11-15T21:12:12.054Z,20.30
2017-11-15T21:31:45.680Z,22.30
2017-11-15T21:34:45.973Z,21.70
2017-11-15T21:54:21.169Z,19.60
2017-11-15T22:11:19.105Z,21.10
2017-11-15T22:13:51.667Z,21.20
2017-11-15T22:38:57.945Z,21.30
2017-11-15T22:42:20.579Z,21.10
2017-11-15T22:44:48.808Z,20.90
2017-11-15T22:47:17.019Z,21.00
2017-11-15T22:49:46.943Z,20.30
2017-11-15T22:52:17.635Z,20.20
2017-11-15T22:54:48.746Z,19.80
2017-11-15T23:47:27.934Z,20.50
2017-11-15T23:49:56.277Z,20.80
2017-11-15T23:52:25.514Z,21.00
2017-11-15T23:54:54.399Z,21.20
2017-11-15T23:57:39.994Z,20.80
